KIIY

Washington-Wilkes County Airport

Washington, Georgia, USA
METAR KIIY 232215Z AUTO 17003KT 10SM CLR 25/13 A3030 RMK AO2 TSNO
Observed Flight Rules
Feb-23 @ 22:15 UTC (19 minutes ago) Visual Flight Rules
Wind Visibility Clouds
170° at 3 knots 10 miles
  • Clear skies
Temperatures Readings
Current 25°C / 77°F
Dewpoint 13°C / 55°F
Humidity 47%
Altimeter 30.3" Hg
Pressure 1026 hPa
Elevation 197
METAR KIIY 232215Z AUTO 17003KT 10SM CLR 25/13 A3030 RMK AO2 TSNO
Observed Flight Rules
Feb-23 @ 22:15 UTC
(19 minutes ago)
VFR
Wind Visibility
170° at 3 knots 10 miles
Clouds
  • Clear skies
Temperature Dewpoint
25°C / 77°F 13°C / 55°F
Humidity Altimeter Pressure
47% 30.3" Hg 1026 hPa